sensor_id;sensor_type;location;lat;lon;timestamp;temperature;humidity
72650;SHT31;61467;50.674;4.618;2022-09-09T00:01:04;16.99;75.56
72650;SHT31;61467;50.674;4.618;2022-09-09T00:03:40;16.93;75.80
72650;SHT31;61467;50.674;4.618;2022-09-09T00:06:15;16.69;77.25
72650;SHT31;61467;50.674;4.618;2022-09-09T00:08:54;16.69;76.85
72650;SHT31;61467;50.674;4.618;2022-09-09T00:11:28;16.66;77.31
72650;SHT31;61467;50.674;4.618;2022-09-09T00:13:57;16.87;76.73
72650;SHT31;61467;50.674;4.618;2022-09-09T00:16:28;16.90;76.70
72650;SHT31;61467;50.674;4.618;2022-09-09T00:19:01;16.93;76.05
72650;SHT31;61467;50.674;4.618;2022-09-09T00:21:32;16.97;75.82
72650;SHT31;61467;50.674;4.618;2022-09-09T00:24:00;16.99;75.66
72650;SHT31;61467;50.674;4.618;2022-09-09T00:26:34;17.10;75.60
72650;SHT31;61467;50.674;4.618;2022-09-09T00:29:08;17.09;75.41
72650;SHT31;61467;50.674;4.618;2022-09-09T00:31:37;17.02;75.53
72650;SHT31;61467;50.674;4.618;2022-09-09T00:34:10;16.94;76.34
72650;SHT31;61467;50.674;4.618;2022-09-09T00:36:38;17.02;75.51
72650;SHT31;61467;50.674;4.618;2022-09-09T00:39:09;17.07;75.45
72650;SHT31;61467;50.674;4.618;2022-09-09T00:41:49;17.12;75.18
72650;SHT31;61467;50.674;4.618;2022-09-09T00:44:31;17.06;75.81
72650;SHT31;61467;50.674;4.618;2022-09-09T00:47:12;17.02;75.84
72650;SHT31;61467;50.674;4.618;2022-09-09T00:49:55;17.04;75.85
72650;SHT31;61467;50.674;4.618;2022-09-09T00:52:32;16.92;76.73
72650;SHT31;61467;50.674;4.618;2022-09-09T00:55:09;16.84;77.04
72650;SHT31;61467;50.674;4.618;2022-09-09T00:57:38;16.97;76.58
72650;SHT31;61467;50.674;4.618;2022-09-09T01:00:21;16.84;77.41
72650;SHT31;61467;50.674;4.618;2022-09-09T01:02:57;16.92;77.31
72650;SHT31;61467;50.674;4.618;2022-09-09T01:05:36;16.87;77.27
72650;SHT31;61467;50.674;4.618;2022-09-09T01:08:18;17.03;76.58
72650;SHT31;61467;50.674;4.618;2022-09-09T01:10:51;17.02;76.76
72650;SHT31;61467;50.674;4.618;2022-09-09T01:13:24;17.12;76.38
72650;SHT31;61467;50.674;4.618;2022-09-09T01:15:52;17.07;76.26
72650;SHT31;61467;50.674;4.618;2022-09-09T01:18:22;17.10;76.58
72650;SHT31;61467;50.674;4.618;2022-09-09T01:20:55;16.97;77.24
72650;SHT31;61467;50.674;4.618;2022-09-09T01:23:36;17.02;76.79
72650;SHT31;61467;50.674;4.618;2022-09-09T01:26:13;16.97;77.38
72650;SHT31;61467;50.674;4.618;2022-09-09T01:28:44;16.89;77.89
72650;SHT31;61467;50.674;4.618;2022-09-09T01:31:15;16.96;77.42
72650;SHT31;61467;50.674;4.618;2022-09-09T01:33:43;16.89;77.83
72650;SHT31;61467;50.674;4.618;2022-09-09T01:36:13;16.86;77.74
72650;SHT31;61467;50.674;4.618;2022-09-09T01:38:41;16.99;77.10
72650;SHT31;61467;50.674;4.618;2022-09-09T01:41:09;16.97;77.48
72650;SHT31;61467;50.674;4.618;2022-09-09T01:43:36;16.84;77.76
72650;SHT31;61467;50.674;4.618;2022-09-09T01:46:03;16.76;77.86
72650;SHT31;61467;50.674;4.618;2022-09-09T01:48:33;16.80;77.35
72650;SHT31;61467;50.674;4.618;2022-09-09T01:50:59;16.93;77.06
72650;SHT31;61467;50.674;4.618;2022-09-09T01:53:26;17.09;76.47
72650;SHT31;61467;50.674;4.618;2022-09-09T01:56:01;17.00;76.82
72650;SHT31;61467;50.674;4.618;2022-09-09T01:58:38;16.89;77.20
72650;SHT31;61467;50.674;4.618;2022-09-09T02:01:13;16.76;77.45
72650;SHT31;61467;50.674;4.618;2022-09-09T02:03:45;16.80;77.22
72650;SHT31;61467;50.674;4.618;2022-09-09T02:06:22;16.83;77.27
72650;SHT31;61467;50.674;4.618;2022-09-09T02:08:53;16.92;76.67
72650;SHT31;61467;50.674;4.618;2022-09-09T02:11:23;16.94;76.82
72650;SHT31;61467;50.674;4.618;2022-09-09T02:13:54;16.92;76.65
72650;SHT31;61467;50.674;4.618;2022-09-09T02:19:27;16.96;76.40
72650;SHT31;61467;50.674;4.618;2022-09-09T02:21:57;16.97;76.16
72650;SHT31;61467;50.674;4.618;2022-09-09T02:24:26;16.92;75.90
72650;SHT31;61467;50.674;4.618;2022-09-09T02:26:54;16.93;75.79
72650;SHT31;61467;50.674;4.618;2022-09-09T02:29:26;17.06;75.57
72650;SHT31;61467;50.674;4.618;2022-09-09T02:31:57;16.94;75.94
72650;SHT31;61467;50.674;4.618;2022-09-09T02:34:27;16.93;75.46
72650;SHT31;61467;50.674;4.618;2022-09-09T02:36:55;16.79;76.13
72650;SHT31;61467;50.674;4.618;2022-09-09T02:39:23;16.84;76.01
72650;SHT31;61467;50.674;4.618;2022-09-09T02:41:50;16.68;76.84
72650;SHT31;61467;50.674;4.618;2022-09-09T02:44:18;16.79;75.87
72650;SHT31;61467;50.674;4.618;2022-09-09T02:47:02;16.87;75.44
72650;SHT31;61467;50.674;4.618;2022-09-09T02:49:39;16.83;75.46
72650;SHT31;61467;50.674;4.618;2022-09-09T02:52:08;16.97;75.40
72650;SHT31;61467;50.674;4.618;2022-09-09T02:54:39;16.73;76.43
72650;SHT31;61467;50.674;4.618;2022-09-09T02:57:10;16.72;76.68
72650;SHT31;61467;50.674;4.618;2022-09-09T02:59:38;16.65;76.77
72650;SHT31;61467;50.674;4.618;2022-09-09T03:02:06;16.72;76.77
72650;SHT31;61467;50.674;4.618;2022-09-09T03:04:32;16.45;77.50
72650;SHT31;61467;50.674;4.618;2022-09-09T03:06:59;16.66;77.03
72650;SHT31;61467;50.674;4.618;2022-09-09T03:09:26;16.82;76.49
72650;SHT31;61467;50.674;4.618;2022-09-09T03:11:52;16.72;76.82
72650;SHT31;61467;50.674;4.618;2022-09-09T03:14:20;16.72;77.03
72650;SHT31;61467;50.674;4.618;2022-09-09T03:16:49;16.82;76.29
72650;SHT31;61467;50.674;4.618;2022-09-09T03:19:17;16.69;76.50
72650;SHT31;61467;50.674;4.618;2022-09-09T03:21:44;16.80;76.25
72650;SHT31;61467;50.674;4.618;2022-09-09T03:24:11;16.76;76.46
72650;SHT31;61467;50.674;4.618;2022-09-09T03:26:38;16.75;76.85
72650;SHT31;61467;50.674;4.618;2022-09-09T03:29:05;16.48;77.43
72650;SHT31;61467;50.674;4.618;2022-09-09T03:31:32;16.49;77.35
72650;SHT31;61467;50.674;4.618;2022-09-09T03:33:59;16.63;77.18
72650;SHT31;61467;50.674;4.618;2022-09-09T03:36:28;16.76;76.55
72650;SHT31;61467;50.674;4.618;2022-09-09T03:38:54;16.61;76.72
72650;SHT31;61467;50.674;4.618;2022-09-09T03:41:22;16.44;77.40
72650;SHT31;61467;50.674;4.618;2022-09-09T03:43:49;16.53;77.49
72650;SHT31;61467;50.674;4.618;2022-09-09T03:46:16;16.36;77.84
72650;SHT31;61467;50.674;4.618;2022-09-09T03:48:42;16.53;77.21
72650;SHT31;61467;50.674;4.618;2022-09-09T03:51:10;16.56;76.95
72650;SHT31;61467;50.674;4.618;2022-09-09T03:53:38;16.56;77.27
72650;SHT31;61467;50.674;4.618;2022-09-09T03:56:08;16.65;76.80
72650;SHT31;61467;50.674;4.618;2022-09-09T03:58:36;16.45;77.75
72650;SHT31;61467;50.674;4.618;2022-09-09T04:01:04;16.53;77.52
72650;SHT31;61467;50.674;4.618;2022-09-09T04:03:33;16.59;77.36
72650;SHT31;61467;50.674;4.618;2022-09-09T04:06:01;16.55;77.24
72650;SHT31;61467;50.674;4.618;2022-09-09T04:08:29;16.59;77.19
72650;SHT31;61467;50.674;4.618;2022-09-09T04:10:58;16.56;77.29
72650;SHT31;61467;50.674;4.618;2022-09-09T04:13:27;16.62;77.03
72650;SHT31;61467;50.674;4.618;2022-09-09T04:15:55;16.35;77.98
72650;SHT31;61467;50.674;4.618;2022-09-09T04:18:23;16.35;78.52
72650;SHT31;61467;50.674;4.618;2022-09-09T04:20:51;16.45;77.92
72650;SHT31;61467;50.674;4.618;2022-09-09T04:23:18;16.59;77.15
72650;SHT31;61467;50.674;4.618;2022-09-09T04:25:46;16.66;77.09
72650;SHT31;61467;50.674;4.618;2022-09-09T04:28:15;16.53;77.32
72650;SHT31;61467;50.674;4.618;2022-09-09T04:30:42;16.48;77.82
72650;SHT31;61467;50.674;4.618;2022-09-09T04:33:10;16.03;79.74
72650;SHT31;61467;50.674;4.618;2022-09-09T04:35:38;16.34;78.29
72650;SHT31;61467;50.674;4.618;2022-09-09T04:38:06;16.35;78.22
72650;SHT31;61467;50.674;4.618;2022-09-09T04:40:34;16.11;79.11
72650;SHT31;61467;50.674;4.618;2022-09-09T04:43:02;16.22;78.23
72650;SHT31;61467;50.674;4.618;2022-09-09T04:45:31;16.04;79.11
72650;SHT31;61467;50.674;4.618;2022-09-09T04:47:58;16.24;78.19
72650;SHT31;61467;50.674;4.618;2022-09-09T04:50:25;16.12;78.51
72650;SHT31;61467;50.674;4.618;2022-09-09T04:52:52;16.24;78.32
72650;SHT31;61467;50.674;4.618;2022-09-09T04:55:18;16.28;78.38
72650;SHT31;61467;50.674;4.618;2022-09-09T04:57:46;16.17;78.58
72650;SHT31;61467;50.674;4.618;2022-09-09T05:00:14;16.11;78.71
72650;SHT31;61467;50.674;4.618;2022-09-09T05:02:43;16.18;77.94
72650;SHT31;61467;50.674;4.618;2022-09-09T05:05:10;16.07;78.81
72650;SHT31;61467;50.674;4.618;2022-09-09T05:07:37;16.14;78.08
72650;SHT31;61467;50.674;4.618;2022-09-09T05:10:04;16.22;78.14
72650;SHT31;61467;50.674;4.618;2022-09-09T05:12:31;16.20;78.43
72650;SHT31;61467;50.674;4.618;2022-09-09T05:14:58;16.36;77.48
72650;SHT31;61467;50.674;4.618;2022-09-09T05:17:24;16.35;77.12
72650;SHT31;61467;50.674;4.618;2022-09-09T05:19:52;16.59;76.49
72650;SHT31;61467;50.674;4.618;2022-09-09T05:22:19;16.49;76.97
72650;SHT31;61467;50.674;4.618;2022-09-09T05:24:49;16.45;76.61
72650;SHT31;61467;50.674;4.618;2022-09-09T05:27:16;16.45;76.13
72650;SHT31;61467;50.674;4.618;2022-09-09T05:29:44;16.28;76.92
72650;SHT31;61467;50.674;4.618;2022-09-09T05:32:11;16.20;77.08
72650;SHT31;61467;50.674;4.618;2022-09-09T05:34:38;16.31;76.92
72650;SHT31;61467;50.674;4.618;2022-09-09T05:37:07;16.68;75.16
72650;SHT31;61467;50.674;4.618;2022-09-09T05:39:33;16.79;74.58
72650;SHT31;61467;50.674;4.618;2022-09-09T05:42:02;16.84;74.00
72650;SHT31;61467;50.674;4.618;2022-09-09T05:44:30;16.87;73.88
72650;SHT31;61467;50.674;4.618;2022-09-09T05:46:59;16.79;74.57
72650;SHT31;61467;50.674;4.618;2022-09-09T05:49:26;16.90;74.00
72650;SHT31;61467;50.674;4.618;2022-09-09T05:51:53;17.02;73.67
72650;SHT31;61467;50.674;4.618;2022-09-09T05:54:21;17.14;73.23
72650;SHT31;61467;50.674;4.618;2022-09-09T05:56:48;16.96;73.80
72650;SHT31;61467;50.674;4.618;2022-09-09T05:59:18;16.93;73.86
72650;SHT31;61467;50.674;4.618;2022-09-09T06:01:44;16.83;74.72
72650;SHT31;61467;50.674;4.618;2022-09-09T06:04:11;16.82;74.42
72650;SHT31;61467;50.674;4.618;2022-09-09T06:06:41;16.79;74.71
72650;SHT31;61467;50.674;4.618;2022-09-09T06:09:09;16.93;74.87
72650;SHT31;61467;50.674;4.618;2022-09-09T06:11:39;16.97;74.39
72650;SHT31;61467;50.674;4.618;2022-09-09T06:14:06;16.99;74.48
72650;SHT31;61467;50.674;4.618;2022-09-09T06:16:33;16.69;75.41
72650;SHT31;61467;50.674;4.618;2022-09-09T06:19:01;16.86;74.43
72650;SHT31;61467;50.674;4.618;2022-09-09T06:21:30;16.93;74.42
72650;SHT31;61467;50.674;4.618;2022-09-09T06:23:57;17.12;73.53
72650;SHT31;61467;50.674;4.618;2022-09-09T06:26:26;17.26;72.96
72650;SHT31;61467;50.674;4.618;2022-09-09T06:28:55;17.13;73.79
72650;SHT31;61467;50.674;4.618;2022-09-09T06:31:26;16.99;73.94
72650;SHT31;61467;50.674;4.618;2022-09-09T06:33:56;17.03;73.95
72650;SHT31;61467;50.674;4.618;2022-09-09T06:36:25;17.16;73.51
72650;SHT31;61467;50.674;4.618;2022-09-09T06:38:52;17.37;72.64
72650;SHT31;61467;50.674;4.618;2022-09-09T06:41:22;17.37;72.71
72650;SHT31;61467;50.674;4.618;2022-09-09T06:43:49;17.10;73.81
72650;SHT31;61467;50.674;4.618;2022-09-09T06:46:18;17.13;73.49
72650;SHT31;61467;50.674;4.618;2022-09-09T06:48:45;17.30;72.89
72650;SHT31;61467;50.674;4.618;2022-09-09T06:51:13;17.41;72.73
72650;SHT31;61467;50.674;4.618;2022-09-09T06:53:42;17.51;72.06
72650;SHT31;61467;50.674;4.618;2022-09-09T06:56:20;17.55;71.94
72650;SHT31;61467;50.674;4.618;2022-09-09T06:58:49;17.30;72.65
72650;SHT31;61467;50.674;4.618;2022-09-09T07:01:19;17.51;71.99
72650;SHT31;61467;50.674;4.618;2022-09-09T07:03:47;17.52;72.38
72650;SHT31;61467;50.674;4.618;2022-09-09T07:06:16;17.37;72.41
72650;SHT31;61467;50.674;4.618;2022-09-09T07:08:43;17.26;73.08
72650;SHT31;61467;50.674;4.618;2022-09-09T07:11:11;17.23;73.25
72650;SHT31;61467;50.674;4.618;2022-09-09T07:13:38;17.31;73.26
72650;SHT31;61467;50.674;4.618;2022-09-09T07:16:06;17.37;72.85
72650;SHT31;61467;50.674;4.618;2022-09-09T07:18:36;17.17;73.80
72650;SHT31;61467;50.674;4.618;2022-09-09T07:21:03;17.43;72.82
72650;SHT31;61467;50.674;4.618;2022-09-09T07:23:30;17.35;72.64
72650;SHT31;61467;50.674;4.618;2022-09-09T07:25:57;17.60;72.39
72650;SHT31;61467;50.674;4.618;2022-09-09T07:28:25;17.55;72.52
72650;SHT31;61467;50.674;4.618;2022-09-09T07:30:53;17.52;72.42
72650;SHT31;61467;50.674;4.618;2022-09-09T07:33:20;17.44;72.80
72650;SHT31;61467;50.674;4.618;2022-09-09T07:35:48;17.60;72.05
72650;SHT31;61467;50.674;4.618;2022-09-09T07:38:15;17.79;71.77
72650;SHT31;61467;50.674;4.618;2022-09-09T07:40:42;17.95;70.75
72650;SHT31;61467;50.674;4.618;2022-09-09T07:43:09;17.93;70.67
72650;SHT31;61467;50.674;4.618;2022-09-09T07:45:36;17.96;70.75
72650;SHT31;61467;50.674;4.618;2022-09-09T07:48:03;17.91;70.88
72650;SHT31;61467;50.674;4.618;2022-09-09T07:50:30;18.14;70.15
72650;SHT31;61467;50.674;4.618;2022-09-09T07:52:58;17.91;70.95
72650;SHT31;61467;50.674;4.618;2022-09-09T07:55:25;18.05;70.61
72650;SHT31;61467;50.674;4.618;2022-09-09T07:57:55;18.14;70.37
72650;SHT31;61467;50.674;4.618;2022-09-09T08:00:22;18.20;70.85
72650;SHT31;61467;50.674;4.618;2022-09-09T08:02:49;17.78;72.75
72650;SHT31;61467;50.674;4.618;2022-09-09T08:05:15;17.92;71.86
72650;SHT31;61467;50.674;4.618;2022-09-09T08:07:43;18.02;71.57
72650;SHT31;61467;50.674;4.618;2022-09-09T08:10:12;18.17;71.22
72650;SHT31;61467;50.674;4.618;2022-09-09T08:12:40;17.96;72.42
72650;SHT31;61467;50.674;4.618;2022-09-09T08:15:07;17.86;72.92
72650;SHT31;61467;50.674;4.618;2022-09-09T08:17:34;18.08;71.92
72650;SHT31;61467;50.674;4.618;2022-09-09T08:20:03;18.17;71.77
72650;SHT31;61467;50.674;4.618;2022-09-09T08:22:32;18.34;70.44
72650;SHT31;61467;50.674;4.618;2022-09-09T08:24:59;18.39;70.28
72650;SHT31;61467;50.674;4.618;2022-09-09T08:27:28;18.54;69.92
72650;SHT31;61467;50.674;4.618;2022-09-09T08:29:55;18.46;70.07
72650;SHT31;61467;50.674;4.618;2022-09-09T08:32:22;18.47;70.38
72650;SHT31;61467;50.674;4.618;2022-09-09T08:34:48;18.36;69.99
72650;SHT31;61467;50.674;4.618;2022-09-09T08:37:16;18.40;70.50
72650;SHT31;61467;50.674;4.618;2022-09-09T08:39:43;18.26;70.35
72650;SHT31;61467;50.674;4.618;2022-09-09T08:42:33;18.23;70.86
72650;SHT31;61467;50.674;4.618;2022-09-09T08:45:18;18.42;70.24
72650;SHT31;61467;50.674;4.618;2022-09-09T08:47:55;18.30;70.40
72650;SHT31;61467;50.674;4.618;2022-09-09T08:50:26;18.30;70.61
72650;SHT31;61467;50.674;4.618;2022-09-09T08:52:57;18.25;70.97
72650;SHT31;61467;50.674;4.618;2022-09-09T08:55:32;17.81;74.13
72650;SHT31;61467;50.674;4.618;2022-09-09T08:58:11;18.19;73.07
72650;SHT31;61467;50.674;4.618;2022-09-09T09:00:45;18.37;72.25
72650;SHT31;61467;50.674;4.618;2022-09-09T09:03:18;18.10;73.15
72650;SHT31;61467;50.674;4.618;2022-09-09T09:05:59;18.06;73.89
72650;SHT31;61467;50.674;4.618;2022-09-09T09:08:33;17.96;74.13
72650;SHT31;61467;50.674;4.618;2022-09-09T09:11:04;17.89;75.16
72650;SHT31;61467;50.674;4.618;2022-09-09T09:13:39;17.86;74.85
72650;SHT31;61467;50.674;4.618;2022-09-09T09:16:15;17.26;78.15
72650;SHT31;61467;50.674;4.618;2022-09-09T09:18:44;17.34;77.02
72650;SHT31;61467;50.674;4.618;2022-09-09T09:21:14;17.43;77.42
72650;SHT31;61467;50.674;4.618;2022-09-09T09:23:49;17.57;76.67
72650;SHT31;61467;50.674;4.618;2022-09-09T09:26:18;17.33;78.57
72650;SHT31;61467;50.674;4.618;2022-09-09T09:28:46;17.23;78.93
72650;SHT31;61467;50.674;4.618;2022-09-09T09:31:13;17.35;77.71
72650;SHT31;61467;50.674;4.618;2022-09-09T09:33:47;16.99;79.54
72650;SHT31;61467;50.674;4.618;2022-09-09T09:36:15;17.03;79.40
72650;SHT31;61467;50.674;4.618;2022-09-09T09:38:52;17.34;78.88
72650;SHT31;61467;50.674;4.618;2022-09-09T09:41:29;17.27;79.03
72650;SHT31;61467;50.674;4.618;2022-09-09T09:43:58;17.48;77.46
72650;SHT31;61467;50.674;4.618;2022-09-09T09:46:26;17.31;78.25
72650;SHT31;61467;50.674;4.618;2022-09-09T09:49:00;17.65;76.65
72650;SHT31;61467;50.674;4.618;2022-09-09T09:51:28;17.52;77.76
72650;SHT31;61467;50.674;4.618;2022-09-09T09:54:04;17.50;78.31
72650;SHT31;61467;50.674;4.618;2022-09-09T09:56:35;17.40;78.93
72650;SHT31;61467;50.674;4.618;2022-09-09T09:59:03;17.51;78.34
72650;SHT31;61467;50.674;4.618;2022-09-09T10:01:32;17.55;78.23
72650;SHT31;61467;50.674;4.618;2022-09-09T10:04:01;17.60;77.61
72650;SHT31;61467;50.674;4.618;2022-09-09T10:06:32;17.65;77.08
72650;SHT31;61467;50.674;4.618;2022-09-09T10:08:59;17.61;77.42
72650;SHT31;61467;50.674;4.618;2022-09-09T10:11:44;17.72;77.60
72650;SHT31;61467;50.674;4.618;2022-09-09T10:14:20;17.44;78.68
72650;SHT31;61467;50.674;4.618;2022-09-09T10:17:09;17.33;79.57
72650;SHT31;61467;50.674;4.618;2022-09-09T10:19:41;17.44;78.99
72650;SHT31;61467;50.674;4.618;2022-09-09T10:22:19;17.48;79.85
72650;SHT31;61467;50.674;4.618;2022-09-09T10:25:03;17.52;78.99
72650;SHT31;61467;50.674;4.618;2022-09-09T10:27:38;17.41;79.74
72650;SHT31;61467;50.674;4.618;2022-09-09T10:30:15;17.51;79.60
72650;SHT31;61467;50.674;4.618;2022-09-09T10:32:48;17.68;78.88
72650;SHT31;61467;50.674;4.618;2022-09-09T10:35:31;17.64;79.78
72650;SHT31;61467;50.674;4.618;2022-09-09T10:38:13;17.82;78.81
72650;SHT31;61467;50.674;4.618;2022-09-09T10:40:48;17.74;79.11
72650;SHT31;61467;50.674;4.618;2022-09-09T10:43:38;17.89;78.57
72650;SHT31;61467;50.674;4.618;2022-09-09T10:46:12;17.91;78.84
72650;SHT31;61467;50.674;4.618;2022-09-09T10:48:49;18.03;78.36
72650;SHT31;61467;50.674;4.618;2022-09-09T10:51:29;17.96;78.86
72650;SHT31;61467;50.674;4.618;2022-09-09T10:54:15;18.16;77.31
72650;SHT31;61467;50.674;4.618;2022-09-09T10:56:49;18.19;76.82
72650;SHT31;61467;50.674;4.618;2022-09-09T10:59:24;17.99;78.59
72650;SHT31;61467;50.674;4.618;2022-09-09T11:01:57;18.25;76.62
72650;SHT31;61467;50.674;4.618;2022-09-09T11:04:29;17.89;78.72
72650;SHT31;61467;50.674;4.618;2022-09-09T11:07:02;18.03;77.98
72650;SHT31;61467;50.674;4.618;2022-09-09T11:09:35;18.01;78.25
72650;SHT31;61467;50.674;4.618;2022-09-09T11:12:03;18.25;77.19
72650;SHT31;61467;50.674;4.618;2022-09-09T11:14:33;18.23;77.86
72650;SHT31;61467;50.674;4.618;2022-09-09T11:17:06;18.47;76.73
72650;SHT31;61467;50.674;4.618;2022-09-09T11:19:36;18.43;76.32
72650;SHT31;61467;50.674;4.618;2022-09-09T11:22:07;18.23;77.75
72650;SHT31;61467;50.674;4.618;2022-09-09T11:24:42;17.96;77.67
72650;SHT31;61467;50.674;4.618;2022-09-09T11:27:14;18.08;77.62
72650;SHT31;61467;50.674;4.618;2022-09-09T11:35:59;18.29;77.81
72650;SHT31;61467;50.674;4.618;2022-09-09T11:38:28;18.17;78.34
72650;SHT31;61467;50.674;4.618;2022-09-09T11:41:00;18.32;77.98
72650;SHT31;61467;50.674;4.618;2022-09-09T11:43:30;18.06;78.30
72650;SHT31;61467;50.674;4.618;2022-09-09T11:45:59;18.02;79.03
72650;SHT31;61467;50.674;4.618;2022-09-09T11:48:34;18.02;78.88
72650;SHT31;61467;50.674;4.618;2022-09-09T11:51:04;18.10;78.84
72650;SHT31;61467;50.674;4.618;2022-09-09T11:53:33;18.10;79.10
72650;SHT31;61467;50.674;4.618;2022-09-09T11:56:10;18.17;79.29
72650;SHT31;61467;50.674;4.618;2022-09-09T11:58:41;18.29;78.88
72650;SHT31;61467;50.674;4.618;2022-09-09T12:01:33;18.22;78.38
72650;SHT31;61467;50.674;4.618;2022-09-09T12:04:13;18.22;78.49
72650;SHT31;61467;50.674;4.618;2022-09-09T12:06:45;18.13;78.97
72650;SHT31;61467;50.674;4.618;2022-09-09T12:09:18;18.26;78.83
72650;SHT31;61467;50.674;4.618;2022-09-09T12:11:46;18.22;78.55
72650;SHT31;61467;50.674;4.618;2022-09-09T12:14:20;18.25;78.13
72650;SHT31;61467;50.674;4.618;2022-09-09T12:16:48;18.47;77.84
72650;SHT31;61467;50.674;4.618;2022-09-09T12:19:19;18.49;77.94
72650;SHT31;61467;50.674;4.618;2022-09-09T12:21:51;18.44;78.50
72650;SHT31;61467;50.674;4.618;2022-09-09T12:24:27;18.50;78.32
72650;SHT31;61467;50.674;4.618;2022-09-09T12:27:01;18.83;77.05
72650;SHT31;61467;50.674;4.618;2022-09-09T12:29:38;18.71;76.39
72650;SHT31;61467;50.674;4.618;2022-09-09T12:32:10;18.67;76.93
72650;SHT31;61467;50.674;4.618;2022-09-09T12:34:42;18.61;76.44
72650;SHT31;61467;50.674;4.618;2022-09-09T12:37:17;18.64;76.52
72650;SHT31;61467;50.674;4.618;2022-09-09T12:39:48;18.51;76.41
72650;SHT31;61467;50.674;4.618;2022-09-09T12:42:20;18.73;76.15
72650;SHT31;61467;50.674;4.618;2022-09-09T12:44:54;18.60;76.45
72650;SHT31;61467;50.674;4.618;2022-09-09T12:47:29;18.73;75.66
72650;SHT31;61467;50.674;4.618;2022-09-09T12:49:58;19.10;74.22
72650;SHT31;61467;50.674;4.618;2022-09-09T12:52:29;18.90;75.39
72650;SHT31;61467;50.674;4.618;2022-09-09T12:54:58;18.84;75.00
72650;SHT31;61467;50.674;4.618;2022-09-09T12:57:31;18.63;75.85
72650;SHT31;61467;50.674;4.618;2022-09-09T13:00:12;18.63;75.55
72650;SHT31;61467;50.674;4.618;2022-09-09T13:02:48;18.67;74.90
72650;SHT31;61467;50.674;4.618;2022-09-09T13:05:20;18.90;74.49
72650;SHT31;61467;50.674;4.618;2022-09-09T13:07:47;18.91;74.79
72650;SHT31;61467;50.674;4.618;2022-09-09T13:10:17;19.33;73.44
72650;SHT31;61467;50.674;4.618;2022-09-09T13:12:47;19.23;73.87
72650;SHT31;61467;50.674;4.618;2022-09-09T13:15:19;19.15;73.09
72650;SHT31;61467;50.674;4.618;2022-09-09T13:17:55;19.00;73.67
72650;SHT31;61467;50.674;4.618;2022-09-09T13:20:24;19.01;73.05
72650;SHT31;61467;50.674;4.618;2022-09-09T13:22:53;19.11;73.50
72650;SHT31;61467;50.674;4.618;2022-09-09T13:25:23;19.49;73.08
72650;SHT31;61467;50.674;4.618;2022-09-09T13:27:56;19.45;73.11
72650;SHT31;61467;50.674;4.618;2022-09-09T13:30:25;19.45;72.00
72650;SHT31;61467;50.674;4.618;2022-09-09T13:33:17;19.32;72.76
72650;SHT31;61467;50.674;4.618;2022-09-09T13:35:48;19.55;72.07
72650;SHT31;61467;50.674;4.618;2022-09-09T13:38:16;19.74;71.62
72650;SHT31;61467;50.674;4.618;2022-09-09T13:40:52;19.67;71.71
72650;SHT31;61467;50.674;4.618;2022-09-09T13:43:22;19.53;70.63
72650;SHT31;61467;50.674;4.618;2022-09-09T13:45:56;19.73;69.82
72650;SHT31;61467;50.674;4.618;2022-09-09T13:48:25;19.90;69.43
72650;SHT31;61467;50.674;4.618;2022-09-09T13:50:58;19.89;69.66
72650;SHT31;61467;50.674;4.618;2022-09-09T13:53:26;20.01;68.89
72650;SHT31;61467;50.674;4.618;2022-09-09T13:55:53;19.97;69.13
72650;SHT31;61467;50.674;4.618;2022-09-09T13:58:20;20.09;68.15
72650;SHT31;61467;50.674;4.618;2022-09-09T14:00:48;20.17;68.58
72650;SHT31;61467;50.674;4.618;2022-09-09T14:03:17;20.40;68.37
72650;SHT31;61467;50.674;4.618;2022-09-09T14:05:44;20.62;67.34
72650;SHT31;61467;50.674;4.618;2022-09-09T14:08:23;20.79;66.60
72650;SHT31;61467;50.674;4.618;2022-09-09T14:10:51;20.88;65.19
72650;SHT31;61467;50.674;4.618;2022-09-09T14:13:23;20.76;65.52
72650;SHT31;61467;50.674;4.618;2022-09-09T14:15:50;21.16;65.07
72650;SHT31;61467;50.674;4.618;2022-09-09T14:18:19;21.46;64.35
72650;SHT31;61467;50.674;4.618;2022-09-09T14:20:47;21.51;62.70
72650;SHT31;61467;50.674;4.618;2022-09-09T14:23:17;21.57;62.59
72650;SHT31;61467;50.674;4.618;2022-09-09T14:25:55;21.62;62.11
72650;SHT31;61467;50.674;4.618;2022-09-09T14:28:43;21.91;61.61
72650;SHT31;61467;50.674;4.618;2022-09-09T14:31:21;21.84;61.62
72650;SHT31;61467;50.674;4.618;2022-09-09T14:33:49;22.01;61.54
72650;SHT31;61467;50.674;4.618;2022-09-09T14:36:18;22.01;61.41
72650;SHT31;61467;50.674;4.618;2022-09-09T14:38:46;22.01;61.07
72650;SHT31;61467;50.674;4.618;2022-09-09T14:44:05;22.18;59.00
72650;SHT31;61467;50.674;4.618;2022-09-09T14:46:35;22.04;61.17
72650;SHT31;61467;50.674;4.618;2022-09-09T14:49:02;21.58;60.58
72650;SHT31;61467;50.674;4.618;2022-09-09T14:51:43;21.29;59.42
72650;SHT31;61467;50.674;4.618;2022-09-09T14:54:20;21.07;59.97
72650;SHT31;61467;50.674;4.618;2022-09-09T14:56:49;21.04;58.72
72650;SHT31;61467;50.674;4.618;2022-09-09T14:59:16;20.88;59.63
72650;SHT31;61467;50.674;4.618;2022-09-09T15:01:46;20.93;60.45
72650;SHT31;61467;50.674;4.618;2022-09-09T15:04:15;21.34;60.95
72650;SHT31;61467;50.674;4.618;2022-09-09T15:06:42;21.51;61.23
72650;SHT31;61467;50.674;4.618;2022-09-09T15:09:12;21.09;61.57
72650;SHT31;61467;50.674;4.618;2022-09-09T15:11:49;20.89;61.58
72650;SHT31;61467;50.674;4.618;2022-09-09T15:14:16;20.69;62.09
72650;SHT31;61467;50.674;4.618;2022-09-09T15:16:53;20.90;62.82
72650;SHT31;61467;50.674;4.618;2022-09-09T15:19:25;20.62;63.06
72650;SHT31;61467;50.674;4.618;2022-09-09T15:21:52;20.99;63.33
72650;SHT31;61467;50.674;4.618;2022-09-09T15:24:33;21.20;62.91
72650;SHT31;61467;50.674;4.618;2022-09-09T15:27:02;21.24;62.86
72650;SHT31;61467;50.674;4.618;2022-09-09T15:29:29;20.90;63.82
72650;SHT31;61467;50.674;4.618;2022-09-09T15:31:56;20.89;64.31
72650;SHT31;61467;50.674;4.618;2022-09-09T15:34:24;20.81;64.51
72650;SHT31;61467;50.674;4.618;2022-09-09T15:36:51;20.86;65.30
72650;SHT31;61467;50.674;4.618;2022-09-09T15:39:20;21.22;63.83
72650;SHT31;61467;50.674;4.618;2022-09-09T15:41:48;21.19;63.96
72650;SHT31;61467;50.674;4.618;2022-09-09T15:44:16;20.93;64.31
72650;SHT31;61467;50.674;4.618;2022-09-09T15:46:46;21.00;63.92
72650;SHT31;61467;50.674;4.618;2022-09-09T15:49:20;21.23;63.11
72650;SHT31;61467;50.674;4.618;2022-09-09T15:51:50;21.30;62.77
72650;SHT31;61467;50.674;4.618;2022-09-09T15:54:22;20.48;65.06
72650;SHT31;61467;50.674;4.618;2022-09-09T15:56:53;20.67;64.42
72650;SHT31;61467;50.674;4.618;2022-09-09T15:59:22;20.44;65.11
72650;SHT31;61467;50.674;4.618;2022-09-09T16:01:49;20.30;65.49
72650;SHT31;61467;50.674;4.618;2022-09-09T16:04:17;20.10;66.71